sensor_id;sensor_type;location;lat;lon;timestamp;P1;durP1;ratioP1;P2;durP2;ratioP2
23232;SDS011;11785;49.500;8.288;2023-04-15T00:01:20;5.28;;;2.13;;
23232;SDS011;11785;49.500;8.288;2023-04-15T00:03:46;2.80;;;1.90;;
23232;SDS011;11785;49.500;8.288;2023-04-15T00:06:12;5.75;;;2.30;;
23232;SDS011;11785;49.500;8.288;2023-04-15T00:08:38;3.85;;;2.20;;
23232;SDS011;11785;49.500;8.288;2023-04-15T00:11:04;3.75;;;1.83;;
23232;SDS011;11785;49.500;8.288;2023-04-15T00:13:32;3.92;;;1.90;;
23232;SDS011;11785;49.500;8.288;2023-04-15T00:16:00;4.03;;;2.28;;
23232;SDS011;11785;49.500;8.288;2023-04-15T00:18:26;3.35;;;2.00;;
23232;SDS011;11785;49.500;8.288;2023-04-15T00:20:53;3.78;;;2.05;;
23232;SDS011;11785;49.500;8.288;2023-04-15T00:23:19;5.97;;;1.90;;
23232;SDS011;11785;49.500;8.288;2023-04-15T00:25:44;3.65;;;2.05;;
23232;SDS011;11785;49.500;8.288;2023-04-15T00:28:10;4.43;;;2.17;;
23232;SDS011;11785;49.500;8.288;2023-04-15T00:30:36;5.68;;;2.25;;
23232;SDS011;11785;49.500;8.288;2023-04-15T00:33:02;6.85;;;2.38;;
23232;SDS011;11785;49.500;8.288;2023-04-15T00:35:27;8.82;;;2.25;;
23232;SDS011;11785;49.500;8.288;2023-04-15T00:37:56;6.82;;;2.25;;
23232;SDS011;11785;49.500;8.288;2023-04-15T00:40:22;6.68;;;2.35;;
23232;SDS011;11785;49.500;8.288;2023-04-15T00:42:48;4.75;;;2.13;;
23232;SDS011;11785;49.500;8.288;2023-04-15T00:45:14;6.80;;;2.17;;
23232;SDS011;11785;49.500;8.288;2023-04-15T00:47:40;3.38;;;1.83;;
23232;SDS011;11785;49.500;8.288;2023-04-15T00:50:07;9.80;;;2.38;;
23232;SDS011;11785;49.500;8.288;2023-04-15T00:52:33;6.93;;;2.33;;
23232;SDS011;11785;49.500;8.288;2023-04-15T00:54:59;6.57;;;2.50;;
23232;SDS011;11785;49.500;8.288;2023-04-15T00:57:25;4.70;;;2.35;;
23232;SDS011;11785;49.500;8.288;2023-04-15T00:59:52;8.20;;;2.30;;
23232;SDS011;11785;49.500;8.288;2023-04-15T01:02:18;5.15;;;2.33;;
23232;SDS011;11785;49.500;8.288;2023-04-15T01:04:44;3.45;;;1.98;;
23232;SDS011;11785;49.500;8.288;2023-04-15T01:07:10;5.68;;;2.53;;
23232;SDS011;11785;49.500;8.288;2023-04-15T01:09:35;6.82;;;3.25;;
23232;SDS011;11785;49.500;8.288;2023-04-15T01:12:01;5.80;;;3.08;;
23232;SDS011;11785;49.500;8.288;2023-04-15T01:14:28;5.57;;;3.30;;
23232;SDS011;11785;49.500;8.288;2023-04-15T01:16:53;5.47;;;3.33;;
23232;SDS011;11785;49.500;8.288;2023-04-15T01:19:19;4.65;;;2.97;;
23232;SDS011;11785;49.500;8.288;2023-04-15T01:21:45;7.55;;;3.60;;
23232;SDS011;11785;49.500;8.288;2023-04-15T01:24:10;6.07;;;3.47;;
23232;SDS011;11785;49.500;8.288;2023-04-15T01:26:41;8.55;;;3.35;;
23232;SDS011;11785;49.500;8.288;2023-04-15T01:29:07;8.07;;;3.75;;
23232;SDS011;11785;49.500;8.288;2023-04-15T01:31:33;6.65;;;3.50;;
23232;SDS011;11785;49.500;8.288;2023-04-15T01:33:59;5.97;;;3.38;;
23232;SDS011;11785;49.500;8.288;2023-04-15T01:36:25;8.05;;;3.13;;
23232;SDS011;11785;49.500;8.288;2023-04-15T01:38:50;6.65;;;2.55;;
23232;SDS011;11785;49.500;8.288;2023-04-15T01:41:20;4.97;;;2.60;;
23232;SDS011;11785;49.500;8.288;2023-04-15T01:43:49;5.57;;;3.00;;
23232;SDS011;11785;49.500;8.288;2023-04-15T01:46:15;5.80;;;2.85;;
23232;SDS011;11785;49.500;8.288;2023-04-15T01:48:40;7.15;;;2.80;;
23232;SDS011;11785;49.500;8.288;2023-04-15T01:51:06;8.02;;;3.13;;
23232;SDS011;11785;49.500;8.288;2023-04-15T01:53:32;4.38;;;3.00;;
23232;SDS011;11785;49.500;8.288;2023-04-15T01:55:58;8.80;;;3.28;;
23232;SDS011;11785;49.500;8.288;2023-04-15T01:58:23;5.97;;;3.08;;
23232;SDS011;11785;49.500;8.288;2023-04-15T02:00:49;6.93;;;2.90;;
23232;SDS011;11785;49.500;8.288;2023-04-15T02:03:15;4.93;;;3.00;;
23232;SDS011;11785;49.500;8.288;2023-04-15T02:05:41;7.20;;;3.30;;
23232;SDS011;11785;49.500;8.288;2023-04-15T02:08:06;7.65;;;3.90;;
23232;SDS011;11785;49.500;8.288;2023-04-15T02:10:33;7.40;;;3.95;;
23232;SDS011;11785;49.500;8.288;2023-04-15T02:12:59;8.32;;;3.55;;
23232;SDS011;11785;49.500;8.288;2023-04-15T02:15:25;7.82;;;3.72;;
23232;SDS011;11785;49.500;8.288;2023-04-15T02:17:50;5.82;;;3.47;;
23232;SDS011;11785;49.500;8.288;2023-04-15T02:20:17;8.38;;;3.30;;
23232;SDS011;11785;49.500;8.288;2023-04-15T02:22:45;8.60;;;3.30;;
23232;SDS011;11785;49.500;8.288;2023-04-15T02:25:12;5.95;;;3.33;;
23232;SDS011;11785;49.500;8.288;2023-04-15T02:27:38;7.07;;;3.55;;
23232;SDS011;11785;49.500;8.288;2023-04-15T02:30:03;7.28;;;2.90;;
23232;SDS011;11785;49.500;8.288;2023-04-15T02:32:31;7.90;;;3.67;;
23232;SDS011;11785;49.500;8.288;2023-04-15T02:35:01;6.55;;;3.60;;
23232;SDS011;11785;49.500;8.288;2023-04-15T02:37:28;5.70;;;3.20;;
23232;SDS011;11785;49.500;8.288;2023-04-15T02:39:55;4.88;;;3.40;;
23232;SDS011;11785;49.500;8.288;2023-04-15T02:42:21;4.80;;;2.60;;
23232;SDS011;11785;49.500;8.288;2023-04-15T02:44:46;6.65;;;2.95;;
23232;SDS011;11785;49.500;8.288;2023-04-15T02:47:12;12.43;;;3.35;;
23232;SDS011;11785;49.500;8.288;2023-04-15T02:49:38;4.85;;;2.67;;
23232;SDS011;11785;49.500;8.288;2023-04-15T02:52:04;5.03;;;2.55;;
23232;SDS011;11785;49.500;8.288;2023-04-15T02:54:31;5.60;;;3.25;;
23232;SDS011;11785;49.500;8.288;2023-04-15T02:56:58;4.18;;;2.60;;
23232;SDS011;11785;49.500;8.288;2023-04-15T02:59:23;7.53;;;3.13;;
23232;SDS011;11785;49.500;8.288;2023-04-15T03:01:49;5.05;;;2.80;;
23232;SDS011;11785;49.500;8.288;2023-04-15T03:04:15;5.97;;;2.80;;
23232;SDS011;11785;49.500;8.288;2023-04-15T03:06:41;7.70;;;3.20;;
23232;SDS011;11785;49.500;8.288;2023-04-15T03:09:06;4.57;;;2.40;;
23232;SDS011;11785;49.500;8.288;2023-04-15T03:11:32;5.57;;;2.75;;
23232;SDS011;11785;49.500;8.288;2023-04-15T03:14:04;6.93;;;3.00;;
23232;SDS011;11785;49.500;8.288;2023-04-15T03:16:30;5.47;;;2.83;;
23232;SDS011;11785;49.500;8.288;2023-04-15T03:18:55;4.53;;;2.65;;
23232;SDS011;11785;49.500;8.288;2023-04-15T03:21:21;6.03;;;2.65;;
23232;SDS011;11785;49.500;8.288;2023-04-15T03:23:47;5.63;;;3.25;;
23232;SDS011;11785;49.500;8.288;2023-04-15T03:26:26;4.20;;;2.65;;
23232;SDS011;11785;49.500;8.288;2023-04-15T03:28:55;4.20;;;2.78;;
23232;SDS011;11785;49.500;8.288;2023-04-15T03:31:22;5.75;;;2.90;;
23232;SDS011;11785;49.500;8.288;2023-04-15T03:33:47;7.65;;;2.88;;
23232;SDS011;11785;49.500;8.288;2023-04-15T03:36:13;5.63;;;2.97;;
23232;SDS011;11785;49.500;8.288;2023-04-15T03:38:39;7.75;;;2.67;;
23232;SDS011;11785;49.500;8.288;2023-04-15T03:41:05;8.38;;;2.65;;
23232;SDS011;11785;49.500;8.288;2023-04-15T03:43:31;6.43;;;2.90;;
23232;SDS011;11785;49.500;8.288;2023-04-15T03:45:57;6.38;;;2.83;;
23232;SDS011;11785;49.500;8.288;2023-04-15T03:48:22;5.13;;;2.60;;
23232;SDS011;11785;49.500;8.288;2023-04-15T03:50:48;6.00;;;3.20;;
23232;SDS011;11785;49.500;8.288;2023-04-15T03:53:14;3.80;;;2.28;;
23232;SDS011;11785;49.500;8.288;2023-04-15T03:55:40;7.70;;;2.97;;
23232;SDS011;11785;49.500;8.288;2023-04-15T03:58:05;5.97;;;2.45;;
23232;SDS011;11785;49.500;8.288;2023-04-15T04:00:31;5.85;;;2.90;;
23232;SDS011;11785;49.500;8.288;2023-04-15T04:02:56;4.90;;;2.67;;
23232;SDS011;11785;49.500;8.288;2023-04-15T04:05:22;5.05;;;2.80;;
23232;SDS011;11785;49.500;8.288;2023-04-15T04:07:47;6.15;;;3.08;;
23232;SDS011;11785;49.500;8.288;2023-04-15T04:10:13;4.72;;;2.92;;
23232;SDS011;11785;49.500;8.288;2023-04-15T04:12:38;5.32;;;2.85;;
23232;SDS011;11785;49.500;8.288;2023-04-15T04:15:04;6.03;;;2.65;;
23232;SDS011;11785;49.500;8.288;2023-04-15T04:17:30;3.75;;;2.50;;
23232;SDS011;11785;49.500;8.288;2023-04-15T04:19:56;6.97;;;2.60;;
23232;SDS011;11785;49.500;8.288;2023-04-15T04:22:22;6.55;;;3.05;;
23232;SDS011;11785;49.500;8.288;2023-04-15T04:24:48;7.35;;;3.03;;
23232;SDS011;11785;49.500;8.288;2023-04-15T04:27:14;8.38;;;3.13;;
23232;SDS011;11785;49.500;8.288;2023-04-15T04:29:40;5.90;;;2.60;;
23232;SDS011;11785;49.500;8.288;2023-04-15T04:32:05;4.15;;;2.63;;
23232;SDS011;11785;49.500;8.288;2023-04-15T04:34:31;4.80;;;3.08;;
23232;SDS011;11785;49.500;8.288;2023-04-15T04:36:57;7.13;;;3.15;;
23232;SDS011;11785;49.500;8.288;2023-04-15T04:39:22;7.60;;;3.03;;
23232;SDS011;11785;49.500;8.288;2023-04-15T04:41:48;7.25;;;2.90;;
23232;SDS011;11785;49.500;8.288;2023-04-15T04:44:14;10.23;;;3.30;;
23232;SDS011;11785;49.500;8.288;2023-04-15T04:46:40;10.25;;;3.70;;
23232;SDS011;11785;49.500;8.288;2023-04-15T04:49:05;9.05;;;2.63;;
23232;SDS011;11785;49.500;8.288;2023-04-15T04:51:31;10.65;;;2.63;;
23232;SDS011;11785;49.500;8.288;2023-04-15T04:53:57;8.43;;;2.53;;
23232;SDS011;11785;49.500;8.288;2023-04-15T04:56:22;8.00;;;2.83;;
23232;SDS011;11785;49.500;8.288;2023-04-15T04:58:48;6.80;;;2.80;;
23232;SDS011;11785;49.500;8.288;2023-04-15T05:01:13;11.25;;;3.50;;
23232;SDS011;11785;49.500;8.288;2023-04-15T05:03:39;6.63;;;3.00;;
23232;SDS011;11785;49.500;8.288;2023-04-15T05:06:05;3.85;;;2.85;;
23232;SDS011;11785;49.500;8.288;2023-04-15T05:08:32;8.73;;;2.80;;
23232;SDS011;11785;49.500;8.288;2023-04-15T05:10:58;6.07;;;2.78;;
23232;SDS011;11785;49.500;8.288;2023-04-15T05:13:24;5.45;;;2.53;;
23232;SDS011;11785;49.500;8.288;2023-04-15T05:15:50;6.93;;;2.92;;
23232;SDS011;11785;49.500;8.288;2023-04-15T05:18:15;8.65;;;3.10;;
23232;SDS011;11785;49.500;8.288;2023-04-15T05:20:41;8.07;;;2.50;;
23232;SDS011;11785;49.500;8.288;2023-04-15T05:23:06;7.43;;;2.80;;
23232;SDS011;11785;49.500;8.288;2023-04-15T05:25:32;6.00;;;2.72;;
23232;SDS011;11785;49.500;8.288;2023-04-15T05:27:58;6.93;;;2.78;;
23232;SDS011;11785;49.500;8.288;2023-04-15T05:30:24;8.60;;;3.10;;
23232;SDS011;11785;49.500;8.288;2023-04-15T05:32:49;7.22;;;2.72;;
23232;SDS011;11785;49.500;8.288;2023-04-15T05:35:15;6.40;;;2.90;;
23232;SDS011;11785;49.500;8.288;2023-04-15T05:37:41;7.88;;;3.25;;
23232;SDS011;11785;49.500;8.288;2023-04-15T05:40:07;7.43;;;3.15;;
23232;SDS011;11785;49.500;8.288;2023-04-15T05:42:34;12.48;;;4.90;;
23232;SDS011;11785;49.500;8.288;2023-04-15T05:45:00;19.58;;;6.32;;
23232;SDS011;11785;49.500;8.288;2023-04-15T05:47:29;10.98;;;6.32;;
23232;SDS011;11785;49.500;8.288;2023-04-15T05:49:54;11.85;;;6.50;;
23232;SDS011;11785;49.500;8.288;2023-04-15T05:52:20;10.95;;;6.60;;
23232;SDS011;11785;49.500;8.288;2023-04-15T05:54:46;12.77;;;6.47;;
23232;SDS011;11785;49.500;8.288;2023-04-15T05:57:11;13.57;;;6.70;;
23232;SDS011;11785;49.500;8.288;2023-04-15T05:59:37;12.27;;;6.40;;
23232;SDS011;11785;49.500;8.288;2023-04-15T06:02:03;13.45;;;7.65;;
23232;SDS011;11785;49.500;8.288;2023-04-15T06:04:30;15.93;;;9.15;;
23232;SDS011;11785;49.500;8.288;2023-04-15T06:06:56;17.15;;;9.63;;
23232;SDS011;11785;49.500;8.288;2023-04-15T06:09:22;19.45;;;10.30;;
23232;SDS011;11785;49.500;8.288;2023-04-15T06:11:47;20.88;;;9.90;;
23232;SDS011;11785;49.500;8.288;2023-04-15T06:14:13;13.48;;;7.85;;
23232;SDS011;11785;49.500;8.288;2023-04-15T06:16:38;10.27;;;6.82;;
23232;SDS011;11785;49.500;8.288;2023-04-15T06:19:04;12.18;;;6.40;;
23232;SDS011;11785;49.500;8.288;2023-04-15T06:21:29;13.50;;;6.00;;
23232;SDS011;11785;49.500;8.288;2023-04-15T06:23:56;11.55;;;5.22;;
23232;SDS011;11785;49.500;8.288;2023-04-15T06:26:23;15.32;;;4.90;;
23232;SDS011;11785;49.500;8.288;2023-04-15T06:28:49;13.68;;;5.45;;
23232;SDS011;11785;49.500;8.288;2023-04-15T06:31:14;11.27;;;4.35;;
23232;SDS011;11785;49.500;8.288;2023-04-15T06:33:40;11.88;;;3.85;;
23232;SDS011;11785;49.500;8.288;2023-04-15T06:36:06;11.25;;;4.07;;
23232;SDS011;11785;49.500;8.288;2023-04-15T06:38:31;9.98;;;4.10;;
23232;SDS011;11785;49.500;8.288;2023-04-15T06:40:57;6.32;;;3.40;;
23232;SDS011;11785;49.500;8.288;2023-04-15T06:43:22;7.45;;;3.38;;
23232;SDS011;11785;49.500;8.288;2023-04-15T06:45:48;8.80;;;3.38;;
23232;SDS011;11785;49.500;8.288;2023-04-15T06:48:13;9.85;;;3.75;;
23232;SDS011;11785;49.500;8.288;2023-04-15T06:50:39;7.30;;;3.78;;
23232;SDS011;11785;49.500;8.288;2023-04-15T06:53:05;11.07;;;4.45;;
23232;SDS011;11785;49.500;8.288;2023-04-15T06:55:31;7.93;;;3.97;;
23232;SDS011;11785;49.500;8.288;2023-04-15T06:57:57;8.95;;;4.10;;
23232;SDS011;11785;49.500;8.288;2023-04-15T07:00:23;10.65;;;4.97;;
23232;SDS011;11785;49.500;8.288;2023-04-15T07:02:49;8.27;;;4.20;;
23232;SDS011;11785;49.500;8.288;2023-04-15T07:05:15;8.68;;;3.92;;
23232;SDS011;11785;49.500;8.288;2023-04-15T07:07:41;9.48;;;4.32;;
23232;SDS011;11785;49.500;8.288;2023-04-15T07:10:06;8.65;;;4.55;;
23232;SDS011;11785;49.500;8.288;2023-04-15T07:12:32;5.18;;;3.65;;
23232;SDS011;11785;49.500;8.288;2023-04-15T07:14:59;7.47;;;3.75;;
23232;SDS011;11785;49.500;8.288;2023-04-15T07:17:25;8.40;;;4.03;;
23232;SDS011;11785;49.500;8.288;2023-04-15T07:19:51;8.13;;;4.57;;
23232;SDS011;11785;49.500;8.288;2023-04-15T07:22:16;9.25;;;4.18;;
23232;SDS011;11785;49.500;8.288;2023-04-15T07:24:42;6.68;;;4.07;;
23232;SDS011;11785;49.500;8.288;2023-04-15T07:27:07;6.65;;;3.95;;
23232;SDS011;11785;49.500;8.288;2023-04-15T07:29:33;8.82;;;4.68;;
23232;SDS011;11785;49.500;8.288;2023-04-15T07:31:58;8.80;;;4.43;;
23232;SDS011;11785;49.500;8.288;2023-04-15T07:34:24;6.35;;;3.95;;
23232;SDS011;11785;49.500;8.288;2023-04-15T07:36:50;10.25;;;5.15;;
23232;SDS011;11785;49.500;8.288;2023-04-15T07:39:18;10.20;;;5.00;;
23232;SDS011;11785;49.500;8.288;2023-04-15T07:41:44;7.50;;;4.53;;
23232;SDS011;11785;49.500;8.288;2023-04-15T07:44:10;8.70;;;4.97;;
23232;SDS011;11785;49.500;8.288;2023-04-15T07:46:36;10.55;;;4.95;;
23232;SDS011;11785;49.500;8.288;2023-04-15T07:49:02;7.70;;;4.85;;
23232;SDS011;11785;49.500;8.288;2023-04-15T07:51:27;10.88;;;5.53;;
23232;SDS011;11785;49.500;8.288;2023-04-15T07:53:53;11.95;;;5.43;;
23232;SDS011;11785;49.500;8.288;2023-04-15T07:56:19;8.27;;;4.90;;
23232;SDS011;11785;49.500;8.288;2023-04-15T07:58:45;10.48;;;4.97;;
23232;SDS011;11785;49.500;8.288;2023-04-15T08:01:11;8.75;;;4.82;;
23232;SDS011;11785;49.500;8.288;2023-04-15T08:03:37;7.97;;;5.03;;
23232;SDS011;11785;49.500;8.288;2023-04-15T08:06:03;9.13;;;4.65;;
23232;SDS011;11785;49.500;8.288;2023-04-15T08:08:28;9.60;;;5.13;;
23232;SDS011;11785;49.500;8.288;2023-04-15T08:10:55;9.10;;;5.20;;
23232;SDS011;11785;49.500;8.288;2023-04-15T08:13:21;8.52;;;5.88;;
23232;SDS011;11785;49.500;8.288;2023-04-15T08:15:52;10.23;;;5.60;;
23232;SDS011;11785;49.500;8.288;2023-04-15T08:18:38;12.35;;;5.35;;
23232;SDS011;11785;49.500;8.288;2023-04-15T08:21:03;11.05;;;5.75;;
23232;SDS011;11785;49.500;8.288;2023-04-15T08:23:30;13.10;;;5.63;;
23232;SDS011;11785;49.500;8.288;2023-04-15T08:25:56;10.63;;;5.32;;
23232;SDS011;11785;49.500;8.288;2023-04-15T08:28:22;12.52;;;5.90;;
23232;SDS011;11785;49.500;8.288;2023-04-15T08:30:47;10.90;;;5.82;;
23232;SDS011;11785;49.500;8.288;2023-04-15T08:33:13;14.30;;;6.22;;
23232;SDS011;11785;49.500;8.288;2023-04-15T08:35:38;12.07;;;5.13;;
23232;SDS011;11785;49.500;8.288;2023-04-15T08:38:04;9.98;;;5.20;;
23232;SDS011;11785;49.500;8.288;2023-04-15T08:40:32;10.68;;;4.75;;
23232;SDS011;11785;49.500;8.288;2023-04-15T08:43:05;10.43;;;4.70;;
23232;SDS011;11785;49.500;8.288;2023-04-15T08:45:37;6.70;;;4.68;;
23232;SDS011;11785;49.500;8.288;2023-04-15T08:48:04;8.68;;;4.72;;
23232;SDS011;11785;49.500;8.288;2023-04-15T08:50:31;7.55;;;4.72;;
23232;SDS011;11785;49.500;8.288;2023-04-15T08:53:00;6.93;;;4.00;;
23232;SDS011;11785;49.500;8.288;2023-04-15T08:55:27;8.02;;;4.93;;
23232;SDS011;11785;49.500;8.288;2023-04-15T08:57:57;8.90;;;4.95;;
23232;SDS011;11785;49.500;8.288;2023-04-15T09:00:23;7.97;;;5.43;;
23232;SDS011;11785;49.500;8.288;2023-04-15T09:02:50;9.13;;;5.50;;
23232;SDS011;11785;49.500;8.288;2023-04-15T09:05:16;8.65;;;5.43;;
23232;SDS011;11785;49.500;8.288;2023-04-15T09:07:41;8.75;;;5.35;;
23232;SDS011;11785;49.500;8.288;2023-04-15T09:10:08;9.20;;;5.68;;
23232;SDS011;11785;49.500;8.288;2023-04-15T09:12:34;7.07;;;5.38;;
23232;SDS011;11785;49.500;8.288;2023-04-15T09:15:01;12.15;;;5.78;;
23232;SDS011;11785;49.500;8.288;2023-04-15T09:17:27;11.10;;;6.03;;
23232;SDS011;11785;49.500;8.288;2023-04-15T09:20:17;6.95;;;5.53;;
23232;SDS011;11785;49.500;8.288;2023-04-15T09:22:46;10.40;;;5.22;;
23232;SDS011;11785;49.500;8.288;2023-04-15T09:27:57;7.75;;;4.93;;
23232;SDS011;11785;49.500;8.288;2023-04-15T09:30:24;8.10;;;4.70;;
23232;SDS011;11785;49.500;8.288;2023-04-15T09:35:25;7.30;;;4.80;;
23232;SDS011;11785;49.500;8.288;2023-04-15T09:37:52;10.73;;;5.72;;
23232;SDS011;11785;49.500;8.288;2023-04-15T09:40:32;9.50;;;5.63;;
23232;SDS011;11785;49.500;8.288;2023-04-15T09:42:59;9.77;;;4.95;;
23232;SDS011;11785;49.500;8.288;2023-04-15T09:45:26;8.45;;;5.93;;
23232;SDS011;11785;49.500;8.288;2023-04-15T09:47:52;10.77;;;5.47;;
23232;SDS011;11785;49.500;8.288;2023-04-15T09:50:18;8.25;;;5.35;;
23232;SDS011;11785;49.500;8.288;2023-04-15T09:52:45;11.13;;;5.53;;
23232;SDS011;11785;49.500;8.288;2023-04-15T09:55:11;11.57;;;6.22;;
23232;SDS011;11785;49.500;8.288;2023-04-15T09:57:38;9.98;;;5.88;;
23232;SDS011;11785;49.500;8.288;2023-04-15T10:00:08;9.43;;;6.07;;
23232;SDS011;11785;49.500;8.288;2023-04-15T10:02:35;11.15;;;6.13;;
23232;SDS011;11785;49.500;8.288;2023-04-15T10:05:06;11.70;;;6.32;;
23232;SDS011;11785;49.500;8.288;2023-04-15T10:07:34;10.55;;;6.18;;
23232;SDS011;11785;49.500;8.288;2023-04-15T10:10:00;9.23;;;6.45;;
23232;SDS011;11785;49.500;8.288;2023-04-15T10:12:29;10.80;;;6.22;;
23232;SDS011;11785;49.500;8.288;2023-04-15T10:14:57;8.27;;;6.25;;
23232;SDS011;11785;49.500;8.288;2023-04-15T10:17:25;10.13;;;6.13;;
23232;SDS011;11785;49.500;8.288;2023-04-15T10:19:57;7.63;;;5.95;;
23232;SDS011;11785;49.500;8.288;2023-04-15T10:22:26;8.55;;;6.05;;
23232;SDS011;11785;49.500;8.288;2023-04-15T10:24:52;9.88;;;5.85;;
23232;SDS011;11785;49.500;8.288;2023-04-15T10:27:20;10.70;;;6.53;;
23232;SDS011;11785;49.500;8.288;2023-04-15T10:29:46;8.40;;;5.85;;
23232;SDS011;11785;49.500;8.288;2023-04-15T10:32:13;8.48;;;5.32;;
23232;SDS011;11785;49.500;8.288;2023-04-15T10:34:40;8.68;;;5.50;;
23232;SDS011;11785;49.500;8.288;2023-04-15T10:37:08;6.18;;;4.78;;
23232;SDS011;11785;49.500;8.288;2023-04-15T10:42:05;6.57;;;4.22;;
23232;SDS011;11785;49.500;8.288;2023-04-15T10:44:31;8.23;;;4.13;;
23232;SDS011;11785;49.500;8.288;2023-04-15T10:46:56;8.55;;;3.78;;
23232;SDS011;11785;49.500;8.288;2023-04-15T10:49:23;5.90;;;3.67;;
23232;SDS011;11785;49.500;8.288;2023-04-15T10:51:50;5.28;;;3.75;;
23232;SDS011;11785;49.500;8.288;2023-04-15T10:59:31;4.72;;;3.30;;
23232;SDS011;11785;49.500;8.288;2023-04-15T11:02:02;5.72;;;3.30;;
23232;SDS011;11785;49.500;8.288;2023-04-15T11:08:04;5.30;;;2.92;;
23232;SDS011;11785;49.500;8.288;2023-04-15T11:12:43;6.25;;;3.42;;
23232;SDS011;11785;49.500;8.288;2023-04-15T11:17:58;7.10;;;3.70;;
23232;SDS011;11785;49.500;8.288;2023-04-15T11:20:33;5.25;;;3.53;;
23232;SDS011;11785;49.500;8.288;2023-04-15T11:23:00;7.47;;;3.65;;
23232;SDS011;11785;49.500;8.288;2023-04-15T11:25:26;6.05;;;4.00;;
23232;SDS011;11785;49.500;8.288;2023-04-15T11:27:54;8.30;;;3.58;;
23232;SDS011;11785;49.500;8.288;2023-04-15T11:30:21;5.95;;;3.60;;
23232;SDS011;11785;49.500;8.288;2023-04-15T11:32:48;5.35;;;3.53;;
23232;SDS011;11785;49.500;8.288;2023-04-15T11:35:15;6.10;;;3.30;;
23232;SDS011;11785;49.500;8.288;2023-04-15T11:37:42;7.13;;;3.63;;
23232;SDS011;11785;49.500;8.288;2023-04-15T11:40:12;7.03;;;3.35;;
23232;SDS011;11785;49.500;8.288;2023-04-15T11:42:39;6.85;;;3.78;;
23232;SDS011;11785;49.500;8.288;2023-04-15T11:45:07;8.55;;;3.75;;
23232;SDS011;11785;49.500;8.288;2023-04-15T11:47:35;6.35;;;3.25;;
23232;SDS011;11785;49.500;8.288;2023-04-15T11:50:17;8.35;;;3.50;;
23232;SDS011;11785;49.500;8.288;2023-04-15T11:52:53;4.03;;;2.90;;
23232;SDS011;11785;49.500;8.288;2023-04-15T11:55:23;4.97;;;3.55;;
23232;SDS011;11785;49.500;8.288;2023-04-15T11:57:52;5.35;;;3.30;;
23232;SDS011;11785;49.500;8.288;2023-04-15T12:00:42;7.85;;;3.60;;
23232;SDS011;11785;49.500;8.288;2023-04-15T12:11:17;5.07;;;2.75;;
23232;SDS011;11785;49.500;8.288;2023-04-15T12:13:43;7.38;;;2.95;;
23232;SDS011;11785;49.500;8.288;2023-04-15T12:16:12;6.82;;;3.13;;
23232;SDS011;11785;49.500;8.288;2023-04-15T12:18:43;5.95;;;2.72;;
23232;SDS011;11785;49.500;8.288;2023-04-15T12:21:10;7.18;;;2.85;;
23232;SDS011;11785;49.500;8.288;2023-04-15T12:23:36;4.70;;;2.20;;
23232;SDS011;11785;49.500;8.288;2023-04-15T12:26:17;4.00;;;2.30;;
23232;SDS011;11785;49.500;8.288;2023-04-15T12:29:01;3.33;;;2.22;;
23232;SDS011;11785;49.500;8.288;2023-04-15T12:31:34;4.93;;;2.57;;
23232;SDS011;11785;49.500;8.288;2023-04-15T12:34:03;4.70;;;2.30;;
23232;SDS011;11785;49.500;8.288;2023-04-15T12:36:32;2.47;;;1.90;;
23232;SDS011;11785;49.500;8.288;2023-04-15T12:39:02;4.22;;;1.80;;
23232;SDS011;11785;49.500;8.288;2023-04-15T12:41:28;2.65;;;1.50;;
23232;SDS011;11785;49.500;8.288;2023-04-15T12:43:54;2.42;;;1.48;;
23232;SDS011;11785;49.500;8.288;2023-04-15T12:46:20;2.67;;;1.25;;
23232;SDS011;11785;49.500;8.288;2023-04-15T12:48:46;4.28;;;1.40;;
23232;SDS011;11785;49.500;8.288;2023-04-15T12:51:12;3.63;;;1.48;;
23232;SDS011;11785;49.500;8.288;2023-04-15T12:53:38;1.30;;;1.00;;
23232;SDS011;11785;49.500;8.288;2023-04-15T12:56:04;4.95;;;1.10;;
23232;SDS011;11785;49.500;8.288;2023-04-15T12:58:30;2.53;;;1.13;;
23232;SDS011;11785;49.500;8.288;2023-04-15T13:00:56;4.70;;;1.50;;
23232;SDS011;11785;49.500;8.288;2023-04-15T13:03:21;2.25;;;1.10;;
23232;SDS011;11785;49.500;8.288;2023-04-15T13:05:47;2.20;;;1.20;;
23232;SDS011;11785;49.500;8.288;2023-04-15T13:08:12;4.82;;;1.10;;
23232;SDS011;11785;49.500;8.288;2023-04-15T13:10:38;2.85;;;1.20;;
23232;SDS011;11785;49.500;8.288;2023-04-15T13:13:04;3.10;;;1.05;;
23232;SDS011;11785;49.500;8.288;2023-04-15T13:15:30;2.95;;;1.30;;
23232;SDS011;11785;49.500;8.288;2023-04-15T13:17:56;3.60;;;1.35;;
23232;SDS011;11785;49.500;8.288;2023-04-15T13:20:21;2.72;;;1.10;;
23232;SDS011;11785;49.500;8.288;2023-04-15T13:22:47;3.50;;;1.00;;
23232;SDS011;11785;49.500;8.288;2023-04-15T13:25:13;1.55;;;1.10;;
23232;SDS011;11785;49.500;8.288;2023-04-15T13:27:38;1.42;;;0.93;;
23232;SDS011;11785;49.500;8.288;2023-04-15T13:30:04;6.68;;;1.35;;
23232;SDS011;11785;49.500;8.288;2023-04-15T13:32:31;5.53;;;2.00;;
23232;SDS011;11785;49.500;8.288;2023-04-15T13:34:57;2.30;;;1.02;;
23232;SDS011;11785;49.500;8.288;2023-04-15T13:37:26;7.82;;;1.10;;
23232;SDS011;11785;49.500;8.288;2023-04-15T13:39:53;2.17;;;0.90;;
23232;SDS011;11785;49.500;8.288;2023-04-15T13:42:19;4.47;;;1.33;;
23232;SDS011;11785;49.500;8.288;2023-04-15T13:44:45;3.55;;;0.80;;
23232;SDS011;11785;49.500;8.288;2023-04-15T13:47:11;1.88;;;0.85;;
23232;SDS011;11785;49.500;8.288;2023-04-15T13:49:38;2.55;;;0.98;;
23232;SDS011;11785;49.500;8.288;2023-04-15T13:52:04;2.35;;;1.00;;
23232;SDS011;11785;49.500;8.288;2023-04-15T13:54:30;1.73;;;0.80;;
23232;SDS011;11785;49.500;8.288;2023-04-15T13:56:55;0.80;;;0.80;;
23232;SDS011;11785;49.500;8.288;2023-04-15T13:59:22;2.78;;;0.50;;
23232;SDS011;11785;49.500;8.288;2023-04-15T14:01:47;0.50;;;0.50;;
23232;SDS011;11785;49.500;8.288;2023-04-15T14:04:13;1.33;;;0.60;;
23232;SDS011;11785;49.500;8.288;2023-04-15T14:06:39;0.60;;;0.50;;
23232;SDS011;11785;49.500;8.288;2023-04-15T14:09:05;1.75;;;0.80;;
23232;SDS011;11785;49.500;8.288;2023-04-15T14:11:30;0.75;;;0.43;;
23232;SDS011;11785;49.500;8.288;2023-04-15T14:13:56;3.00;;;0.80;;
23232;SDS011;11785;49.500;8.288;2023-04-15T14:16:22;2.70;;;0.77;;
23232;SDS011;11785;49.500;8.288;2023-04-15T14:18:47;1.65;;;0.68;;
23232;SDS011;11785;49.500;8.288;2023-04-15T14:21:13;2.78;;;0.50;;
23232;SDS011;11785;49.500;8.288;2023-04-15T14:23:38;0.73;;;0.60;;
23232;SDS011;11785;49.500;8.288;2023-04-15T14:26:05;0.77;;;0.60;;
23232;SDS011;11785;49.500;8.288;2023-04-15T14:28:30;1.35;;;0.60;;
23232;SDS011;11785;49.500;8.288;2023-04-15T14:30:56;0.60;;;0.60;;
23232;SDS011;11785;49.500;8.288;2023-04-15T14:33:21;0.50;;;0.50;;
23232;SDS011;11785;49.500;8.288;2023-04-15T14:35:48;0.50;;;0.50;;
23232;SDS011;11785;49.500;8.288;2023-04-15T14:38:14;3.80;;;1.08;;
23232;SDS011;11785;49.500;8.288;2023-04-15T14:40:40;1.40;;;1.27;;
23232;SDS011;11785;49.500;8.288;2023-04-15T14:43:06;1.48;;;1.15;;
23232;SDS011;11785;49.500;8.288;2023-04-15T14:45:31;2.08;;;1.23;;
23232;SDS011;11785;49.500;8.288;2023-04-15T14:47:58;3.20;;;1.40;;
23232;SDS011;11785;49.500;8.288;2023-04-15T14:50:23;1.73;;;1.15;;
23232;SDS011;11785;49.500;8.288;2023-04-15T14:52:49;1.50;;;1.40;;
23232;SDS011;11785;49.500;8.288;2023-04-15T14:55:15;1.63;;;1.48;;
23232;SDS011;11785;49.500;8.288;2023-04-15T14:57:41;2.17;;;1.67;;
23232;SDS011;11785;49.500;8.288;2023-04-15T15:00:07;1.77;;;1.58;;
23232;SDS011;11785;49.500;8.288;2023-04-15T15:02:35;1.60;;;1.48;;
23232;SDS011;11785;49.500;8.288;2023-04-15T15:05:01;2.25;;;1.60;;
23232;SDS011;11785;49.500;8.288;2023-04-15T15:07:27;1.65;;;1.50;;
23232;SDS011;11785;49.500;8.288;2023-04-15T15:09:53;3.50;;;1.63;;
23232;SDS011;11785;49.500;8.288;2023-04-15T15:12:19;1.50;;;1.40;;